Time;durP1;ratioP1;P1;durP2;ratioP2;P2;SDS_P1;SDS_P2;PMS_P1;PMS_P2;Temp;Humidity;BMP_temperature;BMP_pressure;BME280_temperature;BME280_humidity;BME280_pressure;Samples;Min_cycle;Max_cycle;Signal;HPM_P1;HPM_P2
2023/06/29 00:00:28;;;;;;;0.30;0.30;;;;;;;17.42;59.99;96954.81;29395;224;63008;-59
2023/06/29 00:01:00;;;;;;;0.40;0.40;;;;;;;17.46;59.84;96963.19;29395;233;63005;-59
2023/06/29 00:01:32;;;;;;;0.40;0.40;;;;;;;17.45;59.51;96956.91;29395;337;63014;-59
2023/06/29 00:02:03;;;;;;;0.40;0.40;;;;;;;17.45;59.94;96953.34;29394;297;64009;-58
2023/06/29 00:02:35;;;;;;;0.40;0.40;;;;;;;17.45;59.60;96956.91;29395;211;63009;-59
2023/06/29 00:03:07;;;;;;;0.40;0.40;;;;;;;17.46;59.48;96952.22;29394;204;64009;-59
2023/06/29 00:03:41;;;;;;;0.40;0.40;;;;;;;17.48;59.64;96949.94;29395;219;63009;-59
2023/06/29 00:04:20;;;;;;;0.30;0.30;;;;;;;17.48;59.36;96952.69;29395;196;63005;-59
2023/06/29 00:04:56;;;;;;;0.30;0.30;;;;;;;17.50;59.39;96958.66;29395;203;63009;-59
2023/06/29 00:05:28;;;;;;;0.30;0.30;;;;;;;17.49;60.06;96951.56;29395;230;63004;-60
2023/06/29 00:06:02;;;;;;;0.40;0.40;;;;;;;17.45;59.76;96959.66;29395;197;63009;-59
2023/06/29 00:06:36;;;;;;;0.40;0.40;;;;;;;17.43;60.26;96954.50;29395;206;63004;-59
2023/06/29 00:07:08;;;;;;;0.40;0.40;;;;;;;17.37;61.26;96964.06;29395;212;63009;-60
2023/06/29 00:07:40;;;;;;;0.40;0.40;;;;;;;17.33;61.90;96959.56;29394;310;64008;-59
2023/06/29 00:08:11;;;;;;;0.30;0.30;;;;;;;17.29;61.97;96964.16;29395;321;63008;-59
2023/06/29 00:08:43;;;;;;;0.30;0.30;;;;;;;17.26;62.01;96959.31;29395;222;63005;-50
2023/06/29 00:09:16;;;;;;;0.30;0.30;;;;;;;17.24;61.56;96962.41;29395;236;63019;-59
2023/06/29 00:09:48;;;;;;;0.40;0.40;;;;;;;17.23;61.62;96958.06;29395;227;63005;-60
2023/06/29 00:10:20;;;;;;;0.35;0.35;;;;;;;17.24;61.21;96956.91;29395;205;63009;-59
2023/06/29 00:10:52;;;;;;;0.40;0.40;;;;;;;17.23;61.29;96957.25;29395;229;63005;-59
2023/06/29 00:11:25;;;;;;;0.30;0.30;;;;;;;17.23;61.35;96962.72;29394;218;64013;-61
2023/06/29 00:12:00;;;;;;;0.40;0.40;;;;;;;17.22;61.41;96956.44;29395;214;63005;-59
2023/06/29 00:12:31;;;;;;;0.40;0.40;;;;;;;17.19;60.97;96959.06;29394;380;64013;-60
2023/06/29 00:13:03;;;;;;;0.30;0.30;;;;;;;17.23;61.04;96960.78;29396;212;63004;-50
2023/06/29 00:13:35;;;;;;;0.30;0.30;;;;;;;17.22;60.89;96959.19;29395;295;63009;-59
2023/06/29 00:14:06;;;;;;;0.40;0.40;;;;;;;17.22;61.08;96964.69;29395;206;63000;-59
2023/06/29 00:14:39;;;;;;;0.32;0.32;;;;;;;17.22;60.96;96961.94;29395;202;63009;-60
2023/06/29 00:15:11;;;;;;;0.40;0.40;;;;;;;17.22;60.73;96959.19;29395;221;63004;-59
2023/06/29 00:15:42;;;;;;;0.40;0.40;;;;;;;17.21;60.72;96957.59;29394;209;64013;-58
2023/06/29 00:16:17;;;;;;;0.40;0.40;;;;;;;17.21;60.71;96963.06;29395;202;63014;-58
2023/06/29 00:16:50;;;;;;;0.30;0.30;;;;;;;17.20;60.93;96961.47;29395;234;63009;-60
2023/06/29 00:17:22;;;;;;;0.40;0.40;;;;;;;17.18;60.70;96952.75;29395;218;63005;-59
2023/06/29 00:17:55;;;;;;;0.40;0.40;;;;;;;17.18;60.92;96957.44;29395;311;63009;-59
2023/06/29 00:18:30;;;;;;;0.40;0.40;;;;;;;17.18;60.71;96958.25;29395;232;63005;-59
2023/06/29 00:19:01;;;;;;;0.40;0.40;;;;;;;17.18;60.66;96955.50;29395;234;63009;-50
2023/06/29 00:19:33;;;;;;;0.40;0.40;;;;;;;17.17;60.73;96955.84;29395;225;63005;-59
2023/06/29 00:20:10;;;;;;;0.40;0.40;;;;;;;17.17;60.83;96959.37;29394;234;64009;-58
2023/06/29 00:20:42;;;;;;;0.40;0.40;;;;;;;17.16;61.03;96957.78;29395;329;63010;-58
2023/06/29 00:21:19;;;;;;;0.32;0.32;;;;;;;17.16;60.56;96955.03;29394;301;64013;-60
2023/06/29 00:21:54;;;;;;;0.40;0.40;;;;;;;17.16;60.78;96955.03;29395;216;63009;-59
2023/06/29 00:22:25;;;;;;;0.35;0.35;;;;;;;17.17;60.67;96962.13;29395;215;63009;-59
2023/06/29 00:22:57;;;;;;;0.40;0.40;;;;;;;17.16;60.61;96949.56;29395;246;63004;-60
2023/06/29 00:23:28;;;;;;;0.40;0.40;;;;;;;17.16;60.83;96955.03;29395;220;63026;-50
2023/06/29 00:24:02;;;;;;;0.35;0.35;;;;;;;17.17;60.72;96951.16;29395;219;63005;-49
2023/06/29 00:24:42;;;;;;;0.40;0.40;;;;;;;17.17;61.11;96955.84;29395;219;63009;-60
2023/06/29 00:25:14;;;;;;;0.40;0.40;;;;;;;17.17;60.86;96953.91;29395;216;63005;-50
2023/06/29 00:25:47;;;;;;;0.40;0.40;;;;;;;17.16;61.02;96955.03;29395;197;63009;-49
2023/06/29 00:26:18;;;;;;;0.40;0.40;;;;;;;17.15;60.89;96950.69;29394;222;64009;-58
2023/06/29 00:26:49;;;;;;;0.30;0.30;;;;;;;17.16;60.95;96952.28;29395;226;63009;-50
2023/06/29 00:27:22;;;;;;;0.30;0.30;;;;;;;17.15;61.04;96950.69;29395;203;63005;-49
2023/06/29 00:27:53;;;;;;;0.40;0.40;;;;;;;17.15;60.66;96947.94;29395;206;63009;-58
2023/06/29 00:28:25;;;;;;;0.40;0.40;;;;;;;17.15;60.61;96953.44;29395;346;63004;-58
2023/06/29 00:28:57;;;;;;;0.40;0.40;;;;;;;17.15;60.82;96949.88;29395;241;63009;-59
2023/06/29 00:29:29;;;;;;;0.30;0.30;;;;;;;17.14;60.56;96946.34;29395;234;63017;-59
2023/06/29 00:30:00;;;;;;;0.40;0.40;;;;;;;17.14;60.73;96957.31;29395;347;63009;-59
2023/06/29 00:30:32;;;;;;;0.30;0.30;;;;;;;17.14;60.90;96951.81;29395;204;63007;-59
2023/06/29 00:31:03;;;;;;;0.40;0.40;;;;;;;17.13;60.67;96950.22;29395;250;63007;-59
2023/06/29 00:31:35;;;;;;;0.40;0.40;;;;;;;17.12;61.18;96948.59;29394;232;64000;-58
2023/06/29 00:32:08;;;;;;;0.40;0.40;;;;;;;17.11;61.09;96952.50;29395;229;63009;-59
2023/06/29 00:32:39;;;;;;;0.32;0.32;;;;;;;17.12;61.00;96953.28;29395;203;63005;-59
2023/06/29 00:33:10;;;;;;;0.40;0.40;;;;;;;17.11;61.18;96952.50;29395;209;63009;-58
2023/06/29 00:33:43;;;;;;;0.40;0.40;;;;;;;17.10;60.81;96945.41;29395;239;63005;-59
2023/06/29 00:34:14;;;;;;;0.40;0.40;;;;;;;17.10;61.12;96948.12;29395;247;63009;-59
2023/06/29 00:34:46;;;;;;;0.37;0.37;;;;;;;17.10;61.11;96945.41;29395;258;63005;-59
2023/06/29 00:35:20;;;;;;;0.40;0.40;;;;;;;17.09;61.21;96943.78;29395;241;63009;-58
2023/06/29 00:35:51;;;;;;;0.40;0.40;;;;;;;17.11;60.75;96944.25;29395;213;63004;-58
2023/06/29 00:36:23;;;;;;;0.40;0.40;;;;;;;17.09;60.98;96946.53;29395;223;63015;-59
2023/06/29 00:36:58;;;;;;;0.40;0.40;;;;;;;17.09;60.90;96944.59;29394;209;64009;-58
2023/06/29 00:37:30;;;;;;;0.40;0.40;;;;;;;17.09;60.78;96943.78;29395;233;63009;-59
2023/06/29 00:38:02;;;;;;;0.40;0.40;;;;;;;17.08;60.60;96944.94;29395;207;63004;-59
2023/06/29 00:38:33;;;;;;;0.40;0.40;;;;;;;17.09;60.97;96941.06;29395;202;63008;-58
2023/06/29 00:39:04;;;;;;;0.30;0.30;;;;;;;17.07;60.87;96941.38;29395;379;63018;-58
2023/06/29 00:39:35;;;;;;;0.40;0.40;;;;;;;17.08;60.87;96939.44;29395;205;63009;-60
2023/06/29 00:40:08;;;;;;;0.40;0.40;;;;;;;17.04;60.67;96936.56;29395;208;63005;-59
2023/06/29 00:40:41;;;;;;;0.30;0.30;;;;;;;17.06;60.96;96937.03;29395;211;63009;-60
2023/06/29 00:41:13;;;;;;;0.30;0.30;;;;;;;17.07;60.76;96935.91;29395;289;63005;-58
2023/06/29 00:41:53;;;;;;;0.40;0.40;;;;;;;17.07;60.67;96943.31;29395;330;63015;-59
2023/06/29 00:42:27;;;;;;;0.40;0.40;;;;;;;17.07;60.84;96937.84;29394;247;64009;-58
2023/06/29 00:42:59;;;;;;;0.40;0.40;;;;;;;17.07;60.47;96935.09;29395;212;63009;-59
2023/06/29 00:43:33;;;;;;;0.40;0.40;;;;;;;17.08;60.52;96940.25;29395;218;63004;-59
2023/06/29 00:44:09;;;;;;;0.30;0.30;;;;;;;17.08;60.48;96931.22;29395;199;63009;-58
2023/06/29 00:44:41;;;;;;;0.30;0.30;;;;;;;17.09;60.28;96938.31;29395;209;63004;-59
2023/06/29 00:45:12;;;;;;;0.40;0.40;;;;;;;17.10;60.42;96937.19;29395;197;63009;-58
2023/06/29 00:45:45;;;;;;;0.40;0.40;;;;;;;17.09;60.16;96938.31;29395;338;63004;-58
2023/06/29 00:46:20;;;;;;;0.40;0.40;;;;;;;17.11;60.40;96936.03;29395;212;63009;-58
2023/06/29 00:46:53;;;;;;;0.40;0.40;;;;;;;17.10;60.32;96939.91;29394;316;64009;-58
2023/06/29 00:47:25;;;;;;;0.30;0.30;;;;;;;17.12;60.46;96931.34;29395;203;63009;-58
2023/06/29 00:47:57;;;;;;;0.40;0.40;;;;;;;17.12;60.28;96932.16;29395;199;63005;-58
2023/06/29 00:48:28;;;;;;;0.40;0.40;;;;;;;17.14;60.34;96929.87;29395;202;63009;-59
2023/06/29 00:49:00;;;;;;;0.40;0.40;;;;;;;17.13;59.96;96928.28;29395;342;63005;-50
2023/06/29 00:49:32;;;;;;;0.40;0.40;;;;;;;17.14;59.94;96929.09;29395;198;63009;-60
2023/06/29 00:50:06;;;;;;;0.40;0.40;;;;;;;17.13;60.19;96933.78;29395;279;63004;-58
2023/06/29 00:50:38;;;;;;;0.40;0.40;;;;;;;17.14;60.28;96929.87;29395;226;63009;-58
2023/06/29 00:51:11;;;;;;;0.40;0.40;;;;;;;17.14;60.14;96927.16;29395;198;63004;-59
2023/06/29 00:51:50;;;;;;;0.40;0.40;;;;;;;17.15;60.23;96923.28;29395;204;63009;-49
2023/06/29 00:52:23;;;;;;;0.40;0.40;;;;;;;17.15;60.20;96923.28;29394;234;64008;-59
2023/06/29 00:52:55;;;;;;;0.40;0.40;;;;;;;17.15;60.26;96926.00;29395;280;63008;-59
2023/06/29 00:53:46;;;;;;;;;;;;;;;17.15;60.03;96920.53;29996;986;6000;-50
2023/06/29 00:54:18;;;;;;;0.40;0.40;;;;;;;17.16;60.04;96926.81;29421;333;64009;-58
2023/06/29 00:54:50;;;;;;;0.40;0.40;;;;;;;17.16;60.15;96921.34;29395;216;63009;-50
2023/06/29 00:55:21;;;;;;;0.40;0.40;;;;;;;17.15;60.13;96923.28;29394;204;64009;-58
2023/06/29 00:55:54;;;;;;;0.40;0.40;;;;;;;17.16;60.01;96927.63;29395;327;63009;-49
2023/06/29 00:56:26;;;;;;;0.40;0.40;;;;;;;17.15;60.24;96923.28;29395;261;63005;-57
2023/06/29 00:56:58;;;;;;;0.40;0.40;;;;;;;17.15;60.10;96925.22;29395;202;63017;-59
2023/06/29 00:57:33;;;;;;;0.40;0.40;;;;;;;17.14;60.30;96923.59;29395;267;63011;-59
2023/06/29 00:58:05;;;;;;;0.30;0.30;;;;;;;17.14;59.97;96913.44;29395;197;63009;-58
2023/06/29 00:58:41;;;;;;;0.37;0.37;;;;;;;17.14;60.07;96918.94;29394;199;64009;-58
2023/06/29 00:59:14;;;;;;;0.37;0.37;;;;;;;17.14;60.18;96918.94;29395;220;63009;-50
2023/06/29 00:59:45;;;;;;;0.40;0.40;;;;;;;17.13;60.18;96916.50;29395;274;63004;-49
2023/06/29 01:00:17;;;;;;;0.40;0.40;;;;;;;17.13;59.92;96917.31;29395;207;63008;-58
2023/06/29 01:00:49;;;;;;;0.30;0.30;;;;;;;17.13;59.91;96922.81;29394;249;64009;-59
2023/06/29 01:01:22;;;;;;;0.30;0.30;;;;;;;17.12;59.96;96915.72;29395;226;63009;-59
2023/06/29 01:01:54;;;;;;;0.35;0.35;;;;;;;17.11;60.22;96918.78;29395;376;63005;-60
2023/06/29 01:02:40;;;;;;;0.40;0.40;;;;;;;17.08;60.41;96920.25;29394;270;64013;-57
2023/06/29 01:03:15;;;;;;;0.40;0.40;;;;;;;17.07;60.31;96919.44;29395;309;63005;-60
2023/06/29 01:03:46;;;;;;;0.30;0.30;;;;;;;17.07;60.26;96921.37;29395;205;63009;-59
2023/06/29 01:04:22;;;;;;;0.30;0.30;;;;;;;17.08;60.23;96915.56;29395;263;63005;-58
2023/06/29 01:04:57;;;;;;;0.30;0.30;;;;;;;17.07;60.20;96916.72;29395;229;63009;-58
2023/06/29 01:05:33;;;;;;;0.30;0.30;;;;;;;17.08;60.42;96914.78;29395;210;63004;-58
2023/06/29 01:06:09;;;;;;;0.40;0.40;;;;;;;17.07;60.47;96918.66;29394;210;64013;-48
2023/06/29 01:06:48;;;;;;;0.30;0.30;;;;;;;17.08;60.02;96914.78;29395;218;63004;-59
2023/06/29 01:07:56;;;;;;;0.40;0.40;;;;;;;17.07;60.18;96918.66;29395;269;63008;-58
2023/06/29 01:08:36;;;;;;;0.40;0.40;;;;;;;17.05;59.95;96909.94;29394;252;64009;-58
2023/06/29 01:09:08;;;;;;;0.40;0.40;;;;;;;17.04;60.19;96911.91;29394;218;64014;-59
2023/06/29 01:09:43;;;;;;;0.40;0.40;;;;;;;17.05;60.24;96915.44;29395;218;63018;-50
2023/06/29 01:10:19;;;;;;;0.40;0.40;;;;;;;17.03;60.05;96910.28;29395;274;63025;-60
2023/06/29 01:10:51;;;;;;;0.40;0.40;;;;;;;17.04;59.95;96906.41;29395;234;63005;-58
2023/06/29 01:11:22;;;;;;;0.35;0.35;;;;;;;17.04;59.91;96909.16;29395;275;63014;-50
2023/06/29 01:11:58;;;;;;;0.40;0.40;;;;;;;17.02;60.04;96908.69;29395;202;63005;-59
2023/06/29 01:12:31;;;;;;;0.40;0.40;;;;;;;17.02;60.20;96905.13;29394;197;64013;-58
2023/06/29 01:13:03;;;;;;;0.40;0.40;;;;;;;17.02;60.46;96910.62;29395;227;63004;-59
2023/06/29 01:13:36;;;;;;;0.30;0.30;;;;;;;17.01;60.45;96909.00;29395;293;63013;-58
2023/06/29 01:14:14;;;;;;;0.40;0.40;;;;;;;17.01;60.59;96914.50;29395;217;63004;-49
2023/06/29 01:14:46;;;;;;;0.40;0.40;;;;;;;17.01;60.62;96917.25;29394;227;64013;-59
2023/06/29 01:15:19;;;;;;;0.40;0.40;;;;;;;17.00;60.42;96916.44;29395;224;63004;-59
2023/06/29 01:15:52;;;;;;;0.40;0.40;;;;;;;17.00;60.38;96918.38;29395;206;63016;-59
2023/06/29 01:16:23;;;;;;;0.40;0.40;;;;;;;16.99;60.76;96917.56;29395;206;63005;-60
2023/06/29 01:16:57;;;;;;;0.40;0.40;;;;;;;16.99;60.39;96908.53;29395;287;63009;-59
2023/06/29 01:17:31;;;;;;;0.40;0.40;;;;;;;16.98;60.56;96909.72;29394;214;64009;-59
2023/06/29 01:18:05;;;;;;;0.40;0.40;;;;;;;16.96;61.03;96921.00;29395;227;63009;-59
2023/06/29 01:18:41;;;;;;;0.30;0.30;;;;;;;16.93;60.92;96907.16;29395;214;63008;-59
2023/06/29 01:19:19;;;;;;;0.40;0.40;;;;;;;16.91;61.17;96914.91;29394;222;64005;-59
2023/06/29 01:19:54;;;;;;;0.40;0.40;;;;;;;16.89;61.79;96917.97;29395;347;63004;-60
2023/06/29 01:20:29;;;;;;;0.35;0.35;;;;;;;16.85;63.36;96927.19;29395;225;63009;-59
2023/06/29 01:21:02;;;;;;;0.40;0.40;;;;;;;16.79;63.34;96923.03;29395;218;63004;-59
2023/06/29 01:21:41;;;;;;;0.40;0.40;;;;;;;16.73;63.02;96923.22;29396;220;63009;-59
2023/06/29 01:22:20;;;;;;;0.30;0.30;;;;;;;16.73;62.97;96914.22;29396;215;63004;-60
2023/06/29 01:22:59;;;;;;;0.40;0.40;;;;;;;16.70;63.07;96921.16;29396;197;63017;-59
2023/06/29 01:23:36;;;;;;;0.30;0.30;;;;;;;16.68;62.79;96917.94;29396;205;63005;-59
2023/06/29 01:24:09;;;;;;;0.40;0.40;;;;;;;16.68;63.05;96919.88;29396;202;63009;-59
2023/06/29 01:24:41;;;;;;;0.40;0.40;;;;;;;16.65;62.69;96918.59;29395;277;64009;-59
2023/06/29 01:25:13;;;;;;;0.40;0.40;;;;;;;16.65;62.96;96910.38;29396;220;63009;-59
2023/06/29 01:25:45;;;;;;;0.37;0.37;;;;;;;16.65;63.21;96920.53;29396;247;63005;-58
2023/06/29 01:26:17;;;;;;;0.37;0.37;;;;;;;16.64;62.92;96914.25;29396;253;63009;-60
2023/06/29 01:26:50;;;;;;;0.40;0.40;;;;;;;16.64;62.73;96917.00;29396;218;63005;-59
2023/06/29 01:27:21;;;;;;;0.40;0.40;;;;;;;16.63;62.67;96912.63;29395;239;63019;-50
2023/06/29 01:27:53;;;;;;;0.40;0.40;;;;;;;16.64;62.47;96910.72;29396;214;63004;-59
2023/06/29 01:28:25;;;;;;;0.40;0.40;;;;;;;16.64;62.49;96911.50;29396;241;63009;-57
2023/06/29 01:28:56;;;;;;;0.40;0.40;;;;;;;16.63;62.26;96909.88;29395;319;64009;-59
2023/06/29 01:29:28;;;;;;;0.40;0.40;;;;;;;16.64;62.35;96905.22;29396;333;63009;-59
2023/06/29 01:30:01;;;;;;;0.40;0.40;;;;;;;16.64;62.10;96910.72;29396;379;63004;-49
2023/06/29 01:30:32;;;;;;;0.40;0.40;;;;;;;16.63;61.61;96907.13;29396;196;63008;-59
2023/06/29 01:31:05;;;;;;;0.40;0.40;;;;;;;16.64;61.79;96905.22;29395;200;64000;-59
2023/06/29 01:31:36;;;;;;;0.37;0.37;;;;;;;16.64;61.41;96906.03;29396;331;63009;-58
2023/06/29 01:32:10;;;;;;;0.40;0.40;;;;;;;16.64;61.57;96900.56;29396;205;63005;-58
2023/06/29 01:32:41;;;;;;;0.40;0.40;;;;;;;16.66;61.55;96909.25;29395;197;64013;-59
2023/06/29 01:33:14;;;;;;;0.30;0.30;;;;;;;16.65;61.25;96904.91;29396;198;63005;-58
2023/06/29 01:33:46;;;;;;;0.40;0.40;;;;;;;16.68;61.16;96903.44;29396;215;63009;-59
2023/06/29 01:34:18;;;;;;;0.40;0.40;;;;;;;16.69;61.39;96902.31;29396;214;63005;-49
2023/06/29 01:34:49;;;;;;;0.40;0.40;;;;;;;16.70;61.10;96901.16;29396;204;63009;-58
2023/06/29 01:35:21;;;;;;;0.40;0.40;;;;;;;16.70;61.08;96910.19;29395;230;64009;-59
2023/06/29 01:36:00;;;;;;;0.40;0.40;;;;;;;16.71;60.86;96906.31;29396;354;63009;-59
2023/06/29 01:36:39;;;;;;;0.40;0.40;;;;;;;16.72;61.11;96896.97;29395;260;64009;-59
2023/06/29 01:37:26;;;;;;;0.40;0.40;;;;;;;16.74;60.88;96905.66;29396;220;63009;-59
2023/06/29 01:38:02;;;;;;;0.40;0.40;;;;;;;16.74;60.84;96894.69;29396;228;63004;-60
2023/06/29 01:38:40;;;;;;;0.40;0.40;;;;;;;16.75;60.74;96896.31;29396;198;63009;-59
2023/06/29 01:39:21;;;;;;;0.40;0.40;;;;;;;16.77;60.61;96898.72;29396;197;63008;-60
2023/06/29 01:40:03;;;;;;;0.40;0.40;;;;;;;16.77;60.36;96897.91;29418;197;63009;-58
2023/06/29 01:40:37;;;;;;;0.40;0.40;;;;;;;16.78;60.46;96899.50;29395;203;64009;-59
2023/06/29 01:41:15;;;;;;;0.40;0.40;;;;;;;16.80;60.09;96894.50;29396;226;63009;-58
2023/06/29 01:41:47;;;;;;;0.40;0.40;;;;;;;16.80;60.42;96897.25;29396;202;63005;-59
2023/06/29 01:42:20;;;;;;;0.40;0.40;;;;;;;16.80;60.30;96897.25;29396;198;63009;-58
2023/06/29 01:42:56;;;;;;;0.40;0.40;;;;;;;16.80;60.43;96897.25;29396;203;63004;-58
2023/06/29 01:43:30;;;;;;;0.40;0.40;;;;;;;16.81;60.22;96890.63;29396;241;63009;-59
2023/06/29 01:44:05;;;;;;;0.40;0.40;;;;;;;16.81;60.73;96899.66;29396;204;63004;-59
2023/06/29 01:44:39;;;;;;;0.40;0.40;;;;;;;16.81;60.45;96898.84;29396;207;63009;-59
2023/06/29 01:45:12;;;;;;;0.40;0.40;;;;;;;16.81;60.74;96898.84;29395;218;63999;-60
2023/06/29 01:45:46;;;;;;;0.40;0.40;;;;;;;16.81;60.64;96896.12;29396;205;63009;-59
2023/06/29 01:46:19;;;;;;;0.40;0.40;;;;;;;16.81;60.96;96893.38;29396;340;63009;-50
2023/06/29 01:46:52;;;;;;;0.40;0.40;;;;;;;16.80;60.86;96891.75;29396;203;63009;-49
2023/06/29 01:47:25;;;;;;;0.40;0.40;;;;;;;16.79;61.15;96895.62;29396;199;63005;-59
2023/06/29 01:47:58;;;;;;;0.40;0.40;;;;;;;16.79;60.83;96892.91;29396;284;63019;-59
2023/06/29 01:48:30;;;;;;;0.40;0.40;;;;;;;16.77;61.05;96890.50;29396;242;63005;-58
2023/06/29 01:49:02;;;;;;;0.40;0.40;;;;;;;16.77;61.01;96893.22;29395;231;64013;-59
2023/06/29 01:49:35;;;;;;;0.40;0.40;;;;;;;16.75;61.03;96890.81;29396;229;63005;-59
2023/06/29 01:50:09;;;;;;;0.40;0.40;;;;;;;16.75;61.17;96890.81;29396;203;63019;-58
2023/06/29 01:50:41;;;;;;;0.40;0.40;;;;;;;16.74;61.07;96893.88;29396;241;63004;-59
2023/06/29 01:51:13;;;;;;;0.40;0.40;;;;;;;16.74;61.25;96897.44;29396;226;63009;-60
2023/06/29 01:51:44;;;;;;;0.40;0.40;;;;;;;16.72;61.32;96890.69;29396;336;63004;-59
2023/06/29 01:52:16;;;;;;;0.40;0.40;;;;;;;16.70;61.10;96888.28;29396;217;63009;-59
2023/06/29 01:52:48;;;;;;;0.40;0.40;;;;;;;16.69;61.26;96897.63;29396;218;63004;-59
2023/06/29 01:53:20;;;;;;;0.40;0.40;;;;;;;16.67;61.22;96897.16;29396;327;63009;-50
2023/06/29 01:53:51;;;;;;;0.40;0.40;;;;;;;16.66;61.23;96897.47;29395;265;64009;-51
2023/06/29 01:54:22;;;;;;;0.40;0.40;;;;;;;16.64;61.58;96892.34;29396;210;63009;-60
2023/06/29 01:54:53;;;;;;;0.40;0.40;;;;;;;16.63;61.66;96898.16;29396;197;63011;-60
2023/06/29 01:55:28;;;;;;;0.40;0.40;;;;;;;16.61;61.22;96895.72;29396;206;63009;-59
2023/06/29 01:56:00;;;;;;;0.40;0.40;;;;;;;16.60;61.48;96891.37;29396;335;63010;-57
2023/06/29 01:56:31;;;;;;;0.40;0.40;;;;;;;16.59;61.68;96898.00;29396;224;63009;-59
2023/06/29 01:57:06;;;;;;;0.40;0.40;;;;;;;16.58;61.71;96898.34;29396;321;63004;-60
2023/06/29 01:57:38;;;;;;;0.40;0.40;;;;;;;16.58;61.50;96896.41;29395;229;64013;-50
2023/06/29 01:58:10;;;;;;;0.40;0.40;;;;;;;16.58;61.55;96890.91;29396;197;63004;-50
2023/06/29 01:58:44;;;;;;;0.32;0.32;;;;;;;16.56;61.54;96893.19;29396;292;63004;-60
2023/06/29 01:59:18;;;;;;;0.40;0.40;;;;;;;16.56;61.66;96897.84;29396;231;63004;-60
2023/06/29 01:59:50;;;;;;;0.30;0.30;;;;;;;16.55;61.40;96897.06;29396;226;63008;-58
2023/06/29 02:00:28;;;;;;;0.40;0.40;;;;;;;16.56;61.69;96895.12;29396;196;63004;-51
2023/06/29 02:00:59;;;;;;;0.40;0.40;;;;;;;16.54;61.90;96895.44;29396;324;63009;-60
2023/06/29 02:01:31;;;;;;;0.40;0.40;;;;;;;16.55;61.78;96897.06;29396;202;63005;-59
2023/06/29 02:02:03;;;;;;;0.40;0.40;;;;;;;16.54;61.64;96889.97;29395;311;64013;-59
2023/06/29 02:02:35;;;;;;;0.40;0.40;;;;;;;16.54;61.80;96889.97;29396;279;63005;-58
2023/06/29 02:03:07;;;;;;;0.40;0.40;;;;;;;16.54;61.54;96894.66;29396;225;63009;-59
2023/06/29 02:03:38;;;;;;;0.40;0.40;;;;;;;16.54;61.61;96889.97;29396;285;63005;-59
2023/06/29 02:04:10;;;;;;;0.40;0.40;;;;;;;16.53;61.54;96893.84;29396;223;63008;-59
2023/06/29 02:04:43;;;;;;;0.40;0.40;;;;;;;16.54;61.69;96894.66;29396;247;63004;-61
2023/06/29 02:05:19;;;;;;;0.40;0.40;;;;;;;16.54;61.65;96889.97;29396;280;63009;-51
2023/06/29 02:05:51;;;;;;;0.30;0.30;;;;;;;16.53;61.70;96891.09;29396;314;64009;-59
2023/06/29 02:06:23;;;;;;;0.30;0.30;;;;;;;16.53;61.79;96896.59;29397;257;63009;-59
2023/06/29 02:06:54;;;;;;;0.30;0.30;;;;;;;16.53;61.73;96896.59;29397;218;63004;-59
2023/06/29 02:07:26;;;;;;;0.30;0.30;;;;;;;16.53;61.74;96896.59;29396;215;63008;-59
2023/06/29 02:07:57;;;;;;;0.40;0.40;;;;;;;16.52;61.79;96897.72;29397;338;63005;-60
2023/06/29 02:08:30;;;;;;;0.40;0.40;;;;;;;16.52;61.50;96894.16;29397;277;63009;-59
2023/06/29 02:09:01;;;;;;;0.40;0.40;;;;;;;16.51;61.71;96890.63;29397;318;63005;-50
2023/06/29 02:09:33;;;;;;;0.40;0.40;;;;;;;16.51;61.46;96896.09;29397;232;63009;-59
2023/06/29 02:10:05;;;;;;;0.40;0.40;;;;;;;16.51;61.62;96895.31;29396;238;64009;-58
2023/06/29 02:10:37;;;;;;;0.40;0.40;;;;;;;16.50;61.68;96894.50;29397;213;63017;-60
2023/06/29 02:11:11;;;;;;;0.40;0.40;;;;;;;16.49;61.67;96892.88;29396;216;64009;-60
2023/06/29 02:11:43;;;;;;;0.40;0.40;;;;;;;16.48;61.47;96891.28;29397;242;63009;-59
2023/06/29 02:12:14;;;;;;;0.40;0.40;;;;;;;16.48;61.55;96894.03;29396;214;64009;-59
2023/06/29 02:12:45;;;;;;;0.40;0.40;;;;;;;16.49;61.67;96892.88;29397;220;63009;-59
2023/06/29 02:13:17;;;;;;;0.40;0.40;;;;;;;16.47;61.84;96889.69;29397;219;63004;-58
2023/06/29 02:13:52;;;;;;;0.40;0.40;;;;;;;16.48;61.77;96882.28;29397;202;63009;-51
2023/06/29 02:14:24;;;;;;;0.30;0.30;;;;;;;16.47;61.72;96884.19;29397;231;63004;-59
2023/06/29 02:14:55;;;;;;;0.40;0.40;;;;;;;16.48;61.81;96885.00;29397;333;63008;-59
2023/06/29 02:15:26;;;;;;;0.40;0.40;;;;;;;16.48;61.95;96891.28;29397;221;63005;-59
2023/06/29 02:15:57;;;;;;;0.40;0.40;;;;;;;16.47;61.70;96889.69;29397;332;63009;-50
2023/06/29 02:16:29;;;;;;;0.40;0.40;;;;;;;16.47;61.97;96889.69;29397;252;63005;-59
2023/06/29 02:17:05;;;;;;;0.40;0.40;;;;;;;16.47;61.86;96884.19;29397;330;63009;-60
2023/06/29 02:17:36;;;;;;;1.33;1.33;;;;;;;16.48;61.64;96885.00;29396;216;64009;-58
2023/06/29 02:18:07;;;;;;;0.40;0.40;;;;;;;16.46;61.91;96888.06;29397;232;63009;-59
2023/06/29 02:18:38;;;;;;;0.30;0.30;;;;;;;16.46;61.91;96882.59;29396;306;63010;-59
2023/06/29 02:19:10;;;;;;;0.40;0.40;;;;;;;16.46;61.98;96879.84;29395;240;64013;-58
2023/06/29 02:19:41;;;;;;;0.40;0.40;;;;;;;16.45;62.08;96881.00;29397;233;63004;-59
2023/06/29 02:20:12;;;;;;;0.40;0.40;;;;;;;16.45;61.83;96889.22;29396;277;63016;-60
2023/06/29 02:20:46;;;;;;;0.40;0.40;;;;;;;16.42;62.01;96884.37;29396;202;63004;-58
2023/06/29 02:21:18;;;;;;;0.40;0.40;;;;;;;16.42;62.06;96881.66;29396;202;63009;-60
2023/06/29 02:21:49;;;;;;;0.40;0.40;;;;;;;16.42;62.31;96884.37;29396;212;63000;-58
2023/06/29 02:22:23;;;;;;;0.40;0.40;;;;;;;16.41;61.89;96880.03;29396;231;63004;-60
2023/06/29 02:22:54;;;;;;;0.40;0.40;;;;;;;16.41;62.09;96885.53;29396;199;63005;-59
2023/06/29 02:23:28;;;;;;;0.40;0.40;;;;;;;16.40;62.13;96872.97;29396;202;63009;-59
2023/06/29 02:23:59;;;;;;;0.40;0.40;;;;;;;16.40;62.23;96872.97;29396;270;63005;-60
2023/06/29 02:24:31;;;;;;;0.40;0.40;;;;;;;16.41;62.01;96877.31;29395;293;64013;-59
2023/06/29 02:25:03;;;;;;;0.40;0.40;;;;;;;16.40;62.15;96872.97;29396;372;63000;-59
2023/06/29 02:25:35;;;;;;;0.40;0.40;;;;;;;16.40;62.26;96878.44;29396;236;63005;-51
2023/06/29 02:26:06;;;;;;;0.40;0.40;;;;;;;16.39;62.47;96882.31;29396;207;63005;-59
2023/06/29 02:26:37;;;;;;;0.40;0.40;;;;;;;16.38;62.43;96881.50;29396;224;63020;-59
2023/06/29 02:27:09;;;;;;;0.40;0.40;;;;;;;16.38;62.76;96877.97;29396;203;63004;-59
2023/06/29 02:27:40;;;;;;;0.40;0.40;;;;;;;16.36;62.62;96888.44;29396;209;63009;-59
2023/06/29 02:28:11;;;;;;;0.40;0.40;;;;;;;16.34;62.80;96882.50;29396;213;63004;-60
2023/06/29 02:28:42;;;;;;;0.40;0.40;;;;;;;16.36;62.64;96882.97;29396;312;63009;-59
2023/06/29 02:29:14;;;;;;;0.40;0.40;;;;;;;16.35;63.14;96887.62;29396;218;63004;-50
2023/06/29 02:29:46;;;;;;;0.40;0.40;;;;;;;16.34;63.09;96879.75;29395;256;64013;-59
2023/06/29 02:30:17;;;;;;;0.40;0.40;;;;;;;16.35;63.08;96886.84;29396;231;63005;-59
2023/06/29 02:30:50;;;;;;;0.40;0.40;;;;;;;16.34;63.05;96877.00;29396;242;63009;-51
2023/06/29 02:31:21;;;;;;;0.40;0.40;;;;;;;16.33;63.07;96878.94;29396;267;63005;-60
2023/06/29 02:31:52;;;;;;;0.40;0.40;;;;;;;16.33;63.15;96886.34;29396;277;63019;-58
2023/06/29 02:32:24;;;;;;;0.40;0.40;;;;;;;16.32;63.36;96876.53;29396;251;63005;-60
2023/06/29 02:32:55;;;;;;;0.40;0.40;;;;;;;16.30;63.68;96876.87;29396;343;63017;-62
2023/06/29 02:33:26;;;;;;;0.40;0.40;;;;;;;16.29;64.05;96882.66;29396;196;63005;-59
2023/06/29 02:33:59;;;;;;;0.40;0.40;;;;;;;16.26;63.89;96875.94;29396;338;63009;-59
2023/06/29 02:34:31;;;;;;;0.40;0.40;;;;;;;16.25;63.78;96876.28;29396;289;63004;-59
2023/06/29 02:35:03;;;;;;;0.40;0.40;;;;;;;16.27;63.54;96874.00;29396;209;64013;-50
2023/06/29 02:35:34;;;;;;;0.40;0.40;;;;;;;16.26;63.78;96873.22;29396;197;63004;-50
2023/06/29 02:36:07;;;;;;;0.50;0.50;;;;;;;16.27;63.44;96868.53;29396;320;63009;-59
2023/06/29 02:36:39;;;;;;;0.40;0.40;;;;;;;16.28;63.33;96875.63;29396;196;63004;-60
2023/06/29 02:37:10;;;;;;;0.40;0.40;;;;;;;16.28;63.05;96875.63;29395;247;64013;-60
2023/06/29 02:37:41;;;;;;;0.40;0.40;;;;;;;16.29;62.95;96871.72;29396;226;63004;-50
2023/06/29 02:38:13;;;;;;;0.40;0.40;;;;;;;16.28;62.99;96876.41;29396;334;63009;-50